createdAt,value
2017-01-23T00:00:45.045Z,0
2017-01-23T00:01:55.765Z,0
2017-01-23T00:03:06.485Z,0
2017-01-23T00:04:17.183Z,0
2017-01-23T00:05:27.880Z,0
2017-01-23T00:06:38.605Z,0
2017-01-23T00:07:49.320Z,0
2017-01-23T00:09:00.046Z,0
2017-01-23T00:10:10.764Z,0
2017-01-23T00:11:21.487Z,0
2017-01-23T00:12:32.233Z,0
2017-01-23T00:13:42.949Z,0
2017-01-23T00:14:53.656Z,0
2017-01-23T00:16:04.369Z,0
2017-01-23T00:17:15.087Z,0
2017-01-23T00:18:25.805Z,0
2017-01-23T00:19:36.539Z,0
2017-01-23T00:20:47.260Z,0
2017-01-23T00:21:58.000Z,0
2017-01-23T00:23:09.092Z,0
2017-01-23T00:24:19.793Z,0
2017-01-23T00:25:30.512Z,0
2017-01-23T00:26:41.265Z,0
2017-01-23T00:27:51.980Z,0
2017-01-23T00:29:02.677Z,0
2017-01-23T00:30:13.397Z,0
2017-01-23T00:31:24.119Z,0
2017-01-23T00:32:34.865Z,0
2017-01-23T00:33:45.585Z,0
2017-01-23T00:34:56.306Z,0
2017-01-23T00:36:07.052Z,0
2017-01-23T00:37:17.751Z,0
2017-01-23T00:38:28.493Z,0
2017-01-23T00:39:39.214Z,0
2017-01-23T00:40:49.935Z,0
2017-01-23T00:42:00.654Z,0
2017-01-23T00:43:11.351Z,0
2017-01-23T00:44:22.093Z,0
2017-01-23T00:45:32.812Z,0
2017-01-23T00:46:43.539Z,0
2017-01-23T00:47:54.274Z,0
2017-01-23T00:49:04.989Z,0
2017-01-23T00:50:15.704Z,0
2017-01-23T00:51:26.428Z,0
2017-01-23T00:52:37.169Z,0
2017-01-23T00:53:47.917Z,0
2017-01-23T00:54:58.661Z,0
2017-01-23T00:56:09.383Z,0
2017-01-23T00:57:20.098Z,0
2017-01-23T00:58:30.799Z,0
2017-01-23T00:59:41.523Z,0
2017-01-23T01:00:52.240Z,0
2017-01-23T01:02:02.990Z,0
2017-01-23T01:03:13.675Z,0
2017-01-23T01:04:24.372Z,0
2017-01-23T01:05:35.096Z,0
2017-01-23T01:06:45.819Z,0
2017-01-23T01:07:56.535Z,0
2017-01-23T01:09:07.256Z,0
2017-01-23T01:10:17.976Z,0
2017-01-23T01:11:28.691Z,0
2017-01-23T01:12:39.420Z,0
2017-01-23T01:13:50.142Z,0
2017-01-23T01:15:00.842Z,0
2017-01-23T01:16:11.583Z,0
2017-01-23T01:17:22.303Z,0
2017-01-23T01:18:33.051Z,0
2017-01-23T01:19:43.777Z,0
2017-01-23T01:20:54.501Z,0
2017-01-23T01:22:05.238Z,0
2017-01-23T01:23:15.960Z,0
2017-01-23T01:24:26.676Z,0
2017-01-23T01:25:37.398Z,0
2017-01-23T01:26:48.119Z,0
2017-01-23T01:27:58.819Z,0
2017-01-23T01:29:09.545Z,0
2017-01-23T01:30:20.263Z,0
2017-01-23T01:31:30.982Z,0
2017-01-23T01:32:41.728Z,0
2017-01-23T01:33:52.449Z,0
2017-01-23T01:35:03.192Z,0
2017-01-23T01:36:13.904Z,0
2017-01-23T01:37:24.592Z,0
2017-01-23T01:38:35.308Z,0
2017-01-23T01:39:46.043Z,0
2017-01-23T01:40:56.750Z,0
2017-01-23T01:42:07.464Z,0
2017-01-23T01:43:18.190Z,0
2017-01-23T01:44:28.930Z,0
2017-01-23T01:45:39.680Z,0
2017-01-23T01:46:50.408Z,0
2017-01-23T01:48:01.127Z,0
2017-01-23T01:49:11.863Z,0
2017-01-23T01:50:22.568Z,0
2017-01-23T01:51:33.292Z,0
2017-01-23T01:52:44.006Z,0
2017-01-23T01:53:54.709Z,0
2017-01-23T01:55:05.426Z,0
2017-01-23T01:56:16.140Z,0
2017-01-23T01:57:26.867Z,0
2017-01-23T01:58:37.604Z,0
2017-01-23T01:59:48.337Z,0
2017-01-23T02:00:59.098Z,0
2017-01-23T02:02:09.802Z,0
2017-01-23T02:03:20.565Z,0
2017-01-23T02:04:31.307Z,0
2017-01-23T02:05:42.014Z,0
2017-01-23T02:06:52.697Z,0
2017-01-23T02:08:03.406Z,0
2017-01-23T02:09:14.132Z,0
2017-01-23T02:10:24.885Z,0
2017-01-23T02:11:35.619Z,0
2017-01-23T02:12:46.388Z,0
2017-01-23T02:13:57.111Z,0
2017-01-23T02:15:07.828Z,0
2017-01-23T02:16:18.524Z,0
2017-01-23T02:17:29.219Z,0
2017-01-23T02:18:39.925Z,0
2017-01-23T02:19:50.663Z,0
2017-01-23T02:21:01.385Z,0
2017-01-23T02:22:12.085Z,0
2017-01-23T02:23:22.828Z,0
2017-01-23T02:24:33.548Z,0
2017-01-23T02:25:44.269Z,0
2017-01-23T02:26:54.983Z,0
2017-01-23T02:28:05.729Z,0
2017-01-23T02:29:16.431Z,0
2017-01-23T02:30:27.183Z,0
2017-01-23T02:31:37.921Z,0
2017-01-23T02:32:48.638Z,0
2017-01-23T02:33:59.337Z,0
2017-01-23T02:35:10.053Z,0
2017-01-23T02:36:20.783Z,0
2017-01-23T02:37:31.525Z,0
2017-01-23T02:38:42.251Z,0
2017-01-23T02:39:52.997Z,0
2017-01-23T02:41:03.713Z,0
2017-01-23T02:42:14.437Z,0
2017-01-23T02:43:25.159Z,0
2017-01-23T02:44:35.884Z,0
2017-01-23T02:45:46.605Z,0
2017-01-23T02:46:57.317Z,0
2017-01-23T02:48:08.039Z,0
2017-01-23T02:49:18.738Z,0
2017-01-23T02:50:29.448Z,0
2017-01-23T02:51:40.163Z,0
2017-01-23T02:52:50.944Z,0
2017-01-23T02:54:01.648Z,0
2017-01-23T02:55:12.372Z,0
2017-01-23T02:56:23.069Z,0
2017-01-23T02:57:33.789Z,0
2017-01-23T02:58:44.525Z,0
2017-01-23T02:59:55.235Z,0
2017-01-23T03:01:05.951Z,0
2017-01-23T03:02:16.666Z,0
2017-01-23T03:03:27.363Z,0
2017-01-23T03:04:38.087Z,0
2017-01-23T03:05:48.836Z,0
2017-01-23T03:06:59.555Z,0
2017-01-23T03:08:10.275Z,0
2017-01-23T03:09:20.992Z,0
2017-01-23T03:10:31.725Z,0
2017-01-23T03:11:42.464Z,0
2017-01-23T03:12:53.161Z,0
2017-01-23T03:14:03.884Z,0
2017-01-23T03:15:14.577Z,0
2017-01-23T03:16:25.296Z,0
2017-01-23T03:17:36.038Z,0
2017-01-23T03:18:46.741Z,0
2017-01-23T03:19:57.487Z,0
2017-01-23T03:21:08.204Z,0
2017-01-23T03:22:18.918Z,0
2017-01-23T03:23:29.622Z,0
2017-01-23T03:24:40.342Z,0
2017-01-23T03:25:51.044Z,0
2017-01-23T03:27:01.766Z,0
2017-01-23T03:28:12.502Z,0
2017-01-23T03:29:23.206Z,0
2017-01-23T03:30:33.951Z,0
2017-01-23T03:31:44.672Z,0
2017-01-23T03:32:55.365Z,0
2017-01-23T03:34:06.082Z,0
2017-01-23T03:35:16.788Z,0
2017-01-23T03:36:27.529Z,0
2017-01-23T03:37:38.251Z,0
2017-01-23T03:38:48.976Z,0
2017-01-23T03:39:59.712Z,0
2017-01-23T03:41:10.438Z,0
2017-01-23T03:42:21.133Z,0
2017-01-23T03:43:31.854Z,0
2017-01-23T03:44:42.555Z,0
2017-01-23T03:45:53.273Z,0
2017-01-23T03:47:03.971Z,0
2017-01-23T03:48:14.694Z,0
2017-01-23T03:49:25.416Z,0
2017-01-23T03:50:36.130Z,0
2017-01-23T03:51:46.828Z,0
2017-01-23T03:52:57.552Z,0
2017-01-23T03:54:08.298Z,0
2017-01-23T03:55:19.022Z,0
2017-01-23T03:56:29.764Z,0
2017-01-23T03:57:40.457Z,0
2017-01-23T03:58:51.182Z,0
2017-01-23T04:00:01.906Z,0
2017-01-23T04:01:12.621Z,0
2017-01-23T04:02:23.323Z,0
2017-01-23T04:03:34.066Z,0
2017-01-23T04:04:44.789Z,0
2017-01-23T04:05:55.529Z,0
2017-01-23T04:07:06.226Z,0
2017-01-23T04:08:16.976Z,0
2017-01-23T04:09:27.697Z,0
2017-01-23T04:10:38.438Z,0
2017-01-23T04:11:49.162Z,0
2017-01-23T04:12:59.859Z,0
2017-01-23T04:14:10.582Z,0
2017-01-23T04:15:21.301Z,0
2017-01-23T04:16:32.037Z,0
2017-01-23T04:17:42.771Z,0
2017-01-23T04:18:53.512Z,0
2017-01-23T04:20:04.236Z,0
2017-01-23T04:21:14.990Z,0
2017-01-23T04:22:25.704Z,0
2017-01-23T04:23:36.795Z,0
2017-01-23T04:24:47.537Z,0
2017-01-23T04:25:58.236Z,0
2017-01-23T04:27:08.934Z,0
2017-01-23T04:28:19.629Z,0
2017-01-23T04:29:30.325Z,0
2017-01-23T04:30:41.051Z,0
2017-01-23T04:31:51.772Z,0
2017-01-23T04:33:02.489Z,0
2017-01-23T04:34:13.210Z,0
2017-01-23T04:35:23.934Z,0
2017-01-23T04:36:34.653Z,0
2017-01-23T04:37:45.350Z,0
2017-01-23T04:38:56.094Z,0
2017-01-23T04:40:06.824Z,0
2017-01-23T04:41:17.541Z,0
2017-01-23T04:42:28.282Z,0
2017-01-23T04:43:38.979Z,0
2017-01-23T04:44:49.694Z,0
2017-01-23T04:46:00.419Z,0
2017-01-23T04:47:11.160Z,0
2017-01-23T04:48:21.891Z,0
2017-01-23T04:49:32.619Z,0
2017-01-23T04:50:43.348Z,0
2017-01-23T04:51:54.088Z,0
2017-01-23T04:53:04.798Z,0
2017-01-23T04:54:15.521Z,0
2017-01-23T04:55:26.266Z,0
2017-01-23T04:56:36.993Z,0
2017-01-23T04:57:47.705Z,0
2017-01-23T04:58:58.434Z,0
2017-01-23T05:00:09.151Z,0
2017-01-23T05:01:19.867Z,0
2017-01-23T05:02:30.560Z,0
2017-01-23T05:03:41.269Z,0
2017-01-23T05:04:52.010Z,0
2017-01-23T05:06:02.730Z,0
2017-01-23T05:07:13.477Z,0
2017-01-23T05:08:24.203Z,0
2017-01-23T05:09:34.918Z,0
2017-01-23T05:10:45.643Z,0
2017-01-23T05:11:56.392Z,0
2017-01-23T05:13:07.096Z,0
2017-01-23T05:14:17.852Z,0
2017-01-23T05:15:28.595Z,0
2017-01-23T05:16:39.333Z,0
2017-01-23T05:17:50.056Z,0
2017-01-23T05:19:00.790Z,0
2017-01-23T05:20:11.527Z,0
2017-01-23T05:21:22.280Z,0
2017-01-23T05:22:33.025Z,0
2017-01-23T05:23:43.741Z,0
2017-01-23T05:24:54.441Z,0
2017-01-23T05:26:05.183Z,0
2017-01-23T05:27:15.908Z,0
2017-01-23T05:28:26.629Z,0
2017-01-23T05:29:37.325Z,0
2017-01-23T05:30:48.042Z,0
2017-01-23T05:31:58.755Z,0
2017-01-23T05:33:09.484Z,0
2017-01-23T05:34:20.210Z,0
2017-01-23T05:35:30.931Z,0
2017-01-23T05:36:41.623Z,0
2017-01-23T05:37:52.364Z,0
2017-01-23T05:39:03.069Z,0
2017-01-23T05:40:13.805Z,0
2017-01-23T05:41:24.523Z,0
2017-01-23T05:42:35.256Z,0
2017-01-23T05:43:45.968Z,0
2017-01-23T05:44:56.697Z,0
2017-01-23T05:46:07.395Z,0
2017-01-23T05:47:18.155Z,0
2017-01-23T05:48:28.856Z,0
2017-01-23T05:49:39.553Z,0
2017-01-23T05:50:50.255Z,0
2017-01-23T05:52:00.988Z,0
2017-01-23T05:53:11.745Z,0
2017-01-23T05:54:22.492Z,0
2017-01-23T05:55:33.209Z,0
2017-01-23T05:56:43.939Z,0
2017-01-23T05:57:54.682Z,0
2017-01-23T05:59:05.400Z,0
2017-01-23T06:00:16.145Z,0
2017-01-23T06:01:26.865Z,0
2017-01-23T06:02:37.589Z,0
2017-01-23T06:03:48.310Z,0
2017-01-23T06:04:59.050Z,0
2017-01-23T06:06:09.747Z,0
2017-01-23T06:07:20.464Z,0
2017-01-23T06:08:31.220Z,0
2017-01-23T06:09:41.942Z,0
2017-01-23T06:10:52.683Z,0
2017-01-23T06:12:03.395Z,0
2017-01-23T06:13:14.098Z,0
2017-01-23T06:14:24.794Z,0
2017-01-23T06:15:35.490Z,0
2017-01-23T06:16:46.234Z,0
2017-01-23T06:17:56.940Z,0
2017-01-23T06:19:07.627Z,0
2017-01-23T06:20:18.331Z,0
2017-01-23T06:21:29.073Z,0
2017-01-23T06:22:40.169Z,0
2017-01-23T06:23:50.879Z,4
2017-01-23T06:25:01.578Z,4
2017-01-23T06:26:12.307Z,0
2017-01-23T06:27:23.024Z,0
2017-01-23T06:28:33.739Z,0
2017-01-23T06:29:44.446Z,4
2017-01-23T06:30:55.164Z,0
2017-01-23T06:32:05.883Z,4
2017-01-23T06:33:16.604Z,4
2017-01-23T06:34:27.305Z,4
2017-01-23T06:35:38.025Z,8
2017-01-23T06:36:48.741Z,4
2017-01-23T06:37:59.468Z,8
2017-01-23T06:39:10.184Z,8
2017-01-23T06:40:20.908Z,12
2017-01-23T06:41:31.630Z,16
2017-01-23T06:42:42.372Z,16
2017-01-23T06:43:53.077Z,20
2017-01-23T06:45:03.818Z,24
2017-01-23T06:46:14.535Z,24
2017-01-23T06:47:25.255Z,32
2017-01-23T06:48:35.957Z,32
2017-01-23T06:49:46.673Z,40
2017-01-23T06:50:57.397Z,48
2017-01-23T06:52:08.145Z,52
2017-01-23T06:53:18.911Z,60
2017-01-23T06:54:29.609Z,68
2017-01-23T06:55:40.356Z,76
2017-01-23T06:56:51.073Z,88
2017-01-23T06:58:01.798Z,104
2017-01-23T06:59:12.520Z,112
2017-01-23T07:00:23.261Z,120
2017-01-23T07:01:34.009Z,132
2017-01-23T07:02:44.732Z,140
2017-01-23T07:03:55.451Z,148
2017-01-23T07:05:06.147Z,152
2017-01-23T07:06:16.845Z,160
2017-01-23T07:07:27.567Z,168
2017-01-23T07:08:38.289Z,180
2017-01-23T07:09:49.000Z,196
2017-01-23T07:10:59.702Z,212
2017-01-23T07:12:10.404Z,228
2017-01-23T07:13:21.142Z,248
2017-01-23T07:14:31.838Z,268
2017-01-23T07:15:42.589Z,276
2017-01-23T07:16:53.312Z,288
2017-01-23T07:18:04.026Z,304
2017-01-23T07:19:14.751Z,332
2017-01-23T07:20:25.492Z,360
2017-01-23T07:21:36.188Z,372
2017-01-23T07:22:46.912Z,392
2017-01-23T07:23:57.636Z,420
2017-01-23T07:25:08.331Z,432
2017-01-23T07:26:19.051Z,436
2017-01-23T07:27:29.815Z,464
2017-01-23T07:28:40.544Z,492
2017-01-23T07:29:51.288Z,512
2017-01-23T07:31:02.002Z,536
2017-01-23T07:32:12.731Z,544
2017-01-23T07:33:23.474Z,572
2017-01-23T07:34:34.199Z,588
2017-01-23T07:35:44.943Z,612
2017-01-23T07:36:55.662Z,636
2017-01-23T07:38:06.765Z,664
2017-01-23T07:39:17.505Z,676
2017-01-23T07:40:28.249Z,704
2017-01-23T07:41:38.950Z,732
2017-01-23T07:42:49.684Z,748
2017-01-23T07:44:00.415Z,780
2017-01-23T07:45:11.142Z,768
2017-01-23T07:46:21.879Z,796
2017-01-23T07:47:32.605Z,812
2017-01-23T07:48:43.320Z,816
2017-01-23T07:49:54.042Z,816
2017-01-23T07:51:04.763Z,808
2017-01-23T07:52:15.484Z,884
2017-01-23T07:53:26.601Z,900
2017-01-23T07:54:37.304Z,912
2017-01-23T07:55:48.021Z,956
2017-01-23T07:56:58.772Z,940
2017-01-23T07:58:09.539Z,968
2017-01-23T07:59:20.262Z,960
2017-01-23T08:00:30.986Z,932
2017-01-23T08:01:41.712Z,940
2017-01-23T08:02:52.431Z,976
2017-01-23T08:04:03.144Z,980
2017-01-23T08:05:13.839Z,992
2017-01-23T08:06:24.566Z,1012
2017-01-23T08:07:35.299Z,1044
2017-01-23T08:08:46.007Z,1096
2017-01-23T08:09:56.728Z,1112
2017-01-23T08:11:07.449Z,1092
2017-01-23T08:12:18.169Z,1104
2017-01-23T08:13:28.908Z,1144
2017-01-23T08:14:39.644Z,1164
2017-01-23T08:15:50.353Z,1276
2017-01-23T08:17:01.050Z,1296
2017-01-23T08:18:11.772Z,1316
2017-01-23T08:19:22.891Z,1320
2017-01-23T08:20:33.592Z,1376
2017-01-23T08:21:44.301Z,1268
2017-01-23T08:22:55.033Z,1332
2017-01-23T08:24:05.746Z,1384
2017-01-23T08:25:16.463Z,1460
2017-01-23T08:26:27.197Z,1488
2017-01-23T08:27:37.892Z,1528
2017-01-23T08:28:48.609Z,1472
2017-01-23T08:29:59.301Z,1468
2017-01-23T08:31:10.031Z,1436
2017-01-23T08:32:20.751Z,1516
2017-01-23T08:33:31.489Z,1468
2017-01-23T08:34:42.194Z,1496
2017-01-23T08:35:52.914Z,1516
2017-01-23T08:37:03.630Z,1560
2017-01-23T08:38:14.356Z,1576
2017-01-23T08:39:25.077Z,1564
2017-01-23T08:40:35.794Z,1564
2017-01-23T08:41:46.520Z,1580
2017-01-23T08:42:57.242Z,1576
2017-01-23T08:44:07.984Z,1660
2017-01-23T08:45:18.681Z,1668
2017-01-23T08:46:29.406Z,1628
2017-01-23T08:47:40.122Z,1552
2017-01-23T08:48:50.870Z,1524
2017-01-23T08:50:01.590Z,1548
2017-01-23T08:51:12.306Z,1596
2017-01-23T08:52:23.004Z,1596
2017-01-23T08:53:33.703Z,1588
2017-01-23T08:54:44.439Z,1652
2017-01-23T08:55:55.145Z,1692
2017-01-23T08:57:05.861Z,1756
2017-01-23T08:58:16.558Z,1744
2017-01-23T08:59:27.259Z,1736
2017-01-23T09:00:37.998Z,1764
2017-01-23T09:01:48.698Z,1788
2017-01-23T09:02:59.420Z,1776
2017-01-23T09:04:10.140Z,2068
2017-01-23T09:05:20.864Z,1976
2017-01-23T09:06:31.613Z,1896
2017-01-23T09:07:42.334Z,1844
2017-01-23T09:08:53.075Z,1824
2017-01-23T09:10:03.795Z,1968
2017-01-23T09:11:14.538Z,2212
2017-01-23T09:12:25.264Z,2276
2017-01-23T09:13:35.983Z,2356
2017-01-23T09:14:46.704Z,2444
2017-01-23T09:15:57.423Z,2316
2017-01-23T09:17:08.126Z,2428
2017-01-23T09:18:18.842Z,2356
2017-01-23T09:19:29.953Z,2388
2017-01-23T09:20:40.658Z,2464
2017-01-23T09:21:51.377Z,2288
2017-01-23T09:23:02.101Z,2264
2017-01-23T09:24:12.819Z,2388
2017-01-23T09:25:23.520Z,2352
2017-01-23T09:26:34.266Z,2352
2017-01-23T09:27:44.984Z,2328
2017-01-23T09:28:55.683Z,2408
2017-01-23T09:30:06.402Z,2464
2017-01-23T09:31:17.148Z,2424
2017-01-23T09:32:27.870Z,2644
2017-01-23T09:33:38.968Z,2584
2017-01-23T09:34:49.686Z,2524
2017-01-23T09:36:00.401Z,2496
2017-01-23T09:37:11.123Z,2532
2017-01-23T09:38:21.825Z,2732
2017-01-23T09:39:32.559Z,2752
2017-01-23T09:40:43.291Z,2560
2017-01-23T09:41:54.029Z,2604
2017-01-23T09:43:04.763Z,2640
2017-01-23T09:44:15.506Z,2572
2017-01-23T09:45:26.257Z,2504
2017-01-23T09:46:36.977Z,2372
2017-01-23T09:47:47.696Z,2396
2017-01-23T09:48:58.436Z,2480
2017-01-23T09:50:09.153Z,2444
2017-01-23T09:51:19.898Z,2360
2017-01-23T09:52:30.605Z,2492
2017-01-23T09:53:41.326Z,2560
2017-01-23T09:54:52.044Z,2556
2017-01-23T09:56:02.762Z,2524
2017-01-23T09:57:13.475Z,2648
2017-01-23T09:58:24.189Z,2664
2017-01-23T09:59:34.908Z,2580
2017-01-23T10:00:45.627Z,2636
2017-01-23T10:01:56.347Z,2616
2017-01-23T10:03:07.089Z,2604
2017-01-23T10:04:17.814Z,2624
2017-01-23T10:05:28.537Z,2616
2017-01-23T10:06:39.280Z,2532
2017-01-23T10:07:50.022Z,2612
2017-01-23T10:09:00.746Z,2616
2017-01-23T10:10:11.484Z,2600
2017-01-23T10:11:22.209Z,2592
2017-01-23T10:12:32.906Z,2516
2017-01-23T10:13:43.631Z,2664
2017-01-23T10:14:54.351Z,2596
2017-01-23T10:16:05.098Z,2684
2017-01-23T10:17:15.866Z,2596
2017-01-23T10:18:26.591Z,2592
2017-01-23T10:19:37.336Z,2524
2017-01-23T10:20:48.103Z,2404
2017-01-23T10:21:58.800Z,2364
2017-01-23T10:23:09.875Z,2280
2017-01-23T10:24:20.612Z,2212
2017-01-23T10:25:31.316Z,2332
2017-01-23T10:26:42.012Z,2560
2017-01-23T10:27:52.757Z,2680
2017-01-23T10:29:03.459Z,2892
2017-01-23T10:30:14.174Z,3020
2017-01-23T10:31:24.901Z,2776
2017-01-23T10:32:35.620Z,2868
2017-01-23T10:33:46.352Z,2884
2017-01-23T10:34:57.056Z,2740
2017-01-23T10:36:07.775Z,2716
2017-01-23T10:37:18.475Z,2748
2017-01-23T10:38:29.195Z,2760
2017-01-23T10:39:39.917Z,2696
2017-01-23T10:40:50.643Z,2736
2017-01-23T10:42:01.360Z,2744
2017-01-23T10:43:12.102Z,2668
2017-01-23T10:44:22.823Z,2600
2017-01-23T10:45:33.524Z,2480
2017-01-23T10:46:44.269Z,2504
2017-01-23T10:47:55.011Z,2464
2017-01-23T10:49:05.763Z,2356
2017-01-23T10:50:16.504Z,2312
2017-01-23T10:51:27.227Z,2324
2017-01-23T10:52:37.949Z,2296
2017-01-23T10:53:48.666Z,2368
2017-01-23T10:54:59.371Z,2396
2017-01-23T10:56:10.114Z,2368
2017-01-23T10:57:20.855Z,2368
2017-01-23T10:58:31.559Z,2476
2017-01-23T10:59:42.296Z,2552
2017-01-23T11:00:53.017Z,2516
2017-01-23T11:02:03.738Z,2492
2017-01-23T11:03:14.435Z,2640
2017-01-23T11:04:25.158Z,2648
2017-01-23T11:05:35.876Z,2632
2017-01-23T11:06:46.573Z,2652
2017-01-23T11:07:57.287Z,2772
2017-01-23T11:09:08.415Z,2604
2017-01-23T11:10:19.156Z,2460
2017-01-23T11:11:29.860Z,2580
2017-01-23T11:12:40.595Z,2632
2017-01-23T11:13:51.308Z,2460
2017-01-23T11:15:02.023Z,2364
2017-01-23T11:16:12.740Z,2260
2017-01-23T11:17:23.461Z,2280
2017-01-23T11:18:34.159Z,2248
2017-01-23T11:19:44.878Z,2252
2017-01-23T11:20:55.574Z,2192
2017-01-23T11:22:06.298Z,2212
2017-01-23T11:23:17.042Z,2312
2017-01-23T11:24:27.741Z,2296
2017-01-23T11:25:38.487Z,2176
2017-01-23T11:26:49.232Z,2220
2017-01-23T11:27:59.969Z,2320
2017-01-23T11:29:10.696Z,2492
2017-01-23T11:30:21.457Z,2364
2017-01-23T11:31:32.188Z,2348
2017-01-23T11:32:42.905Z,2512
2017-01-23T11:33:53.610Z,2536
2017-01-23T11:35:04.330Z,2532
2017-01-23T11:36:15.068Z,2460
2017-01-23T11:37:25.773Z,2456
2017-01-23T11:38:36.543Z,2608
2017-01-23T11:39:47.263Z,2632
2017-01-23T11:40:58.002Z,2580
2017-01-23T11:42:08.703Z,2364
2017-01-23T11:43:19.404Z,2216
2017-01-23T11:44:30.101Z,2216
2017-01-23T11:45:40.840Z,2424
2017-01-23T11:46:51.561Z,2388
2017-01-23T11:48:02.290Z,2364
2017-01-23T11:49:13.058Z,2340
2017-01-23T11:50:23.795Z,2508
2017-01-23T11:51:34.496Z,2396
2017-01-23T11:52:45.195Z,2436
2017-01-23T11:53:55.922Z,2460
2017-01-23T11:55:06.662Z,2536
2017-01-23T11:56:17.405Z,2784
2017-01-23T11:57:28.112Z,2988
2017-01-23T11:58:38.839Z,3040
2017-01-23T11:59:49.547Z,3192
2017-01-23T12:01:00.270Z,3196
2017-01-23T12:02:10.993Z,3112
2017-01-23T12:03:21.707Z,3108
2017-01-23T12:04:32.452Z,3148
2017-01-23T12:05:43.149Z,2808
2017-01-23T12:06:53.872Z,2720
2017-01-23T12:08:04.594Z,2796
2017-01-23T12:09:15.310Z,2892
2017-01-23T12:10:26.008Z,2676
2017-01-23T12:11:36.734Z,2748
2017-01-23T12:12:47.478Z,2504
2017-01-23T12:13:58.225Z,2604
2017-01-23T12:15:08.950Z,2640
2017-01-23T12:16:19.689Z,2264
2017-01-23T12:17:30.384Z,2284
2017-01-23T12:18:41.104Z,2308
2017-01-23T12:19:51.824Z,2436
2017-01-23T12:21:02.526Z,2328
2017-01-23T12:22:13.247Z,2344
2017-01-23T12:23:23.968Z,2400
2017-01-23T12:24:34.689Z,2712
2017-01-23T12:25:45.432Z,2544
2017-01-23T12:26:56.132Z,2376
2017-01-23T12:28:06.868Z,2412
2017-01-23T12:29:17.597Z,2296
2017-01-23T12:30:28.315Z,2180
2017-01-23T12:31:39.010Z,2072
2017-01-23T12:32:49.707Z,2284
2017-01-23T12:34:00.411Z,2344
2017-01-23T12:35:11.153Z,2444
2017-01-23T12:36:21.868Z,2400
2017-01-23T12:37:32.596Z,2404
2017-01-23T12:38:43.310Z,2372
2017-01-23T12:39:54.028Z,2324
2017-01-23T12:41:04.757Z,2252
2017-01-23T12:42:15.502Z,2164
2017-01-23T12:43:26.223Z,2208
2017-01-23T12:44:36.946Z,2216
2017-01-23T12:45:47.691Z,2156
2017-01-23T12:46:58.437Z,2128
2017-01-23T12:48:09.154Z,1992
2017-01-23T12:49:19.854Z,2272
2017-01-23T12:50:30.571Z,2180
2017-01-23T12:51:41.295Z,1928
2017-01-23T12:52:52.013Z,1852
2017-01-23T12:54:02.737Z,1892
2017-01-23T12:55:13.459Z,1808
2017-01-23T12:56:24.205Z,1792
2017-01-23T12:57:34.928Z,1836
2017-01-23T12:58:45.651Z,1820
2017-01-23T12:59:56.392Z,1832
2017-01-23T13:01:07.164Z,1784
2017-01-23T13:02:17.889Z,1724
2017-01-23T13:03:28.604Z,1668
2017-01-23T13:04:39.325Z,1584
2017-01-23T13:05:50.073Z,1720
2017-01-23T13:07:00.816Z,1892
2017-01-23T13:08:11.539Z,1812
2017-01-23T13:09:22.283Z,1740
2017-01-23T13:10:33.028Z,1668
2017-01-23T13:11:43.726Z,1664
2017-01-23T13:12:54.447Z,1744
2017-01-23T13:14:05.170Z,1708
2017-01-23T13:15:15.895Z,1904
2017-01-23T13:16:26.637Z,1788
2017-01-23T13:17:37.358Z,1732
2017-01-23T13:18:48.102Z,1688
2017-01-23T13:19:58.821Z,1900
2017-01-23T13:21:09.542Z,1780
2017-01-23T13:22:20.259Z,1644
2017-01-23T13:23:30.988Z,1740
2017-01-23T13:24:41.711Z,1696
2017-01-23T13:25:52.427Z,1560
2017-01-23T13:27:03.147Z,1552
2017-01-23T13:28:13.843Z,1508
2017-01-23T13:29:24.572Z,1472
2017-01-23T13:30:35.706Z,1532
2017-01-23T13:31:46.406Z,1656
2017-01-23T13:32:57.106Z,1576
2017-01-23T13:34:07.827Z,1528
2017-01-23T13:35:18.548Z,1480
2017-01-23T13:36:29.265Z,1512
2017-01-23T13:37:39.982Z,1464
2017-01-23T13:38:50.682Z,1636
2017-01-23T13:40:01.404Z,1644
2017-01-23T13:41:12.127Z,1544
2017-01-23T13:42:22.824Z,1504
2017-01-23T13:43:33.599Z,1440
2017-01-23T13:44:44.314Z,1392
2017-01-23T13:45:55.024Z,1400
2017-01-23T13:47:05.759Z,1332
2017-01-23T13:48:16.498Z,1444
2017-01-23T13:49:27.227Z,1428
2017-01-23T13:50:37.962Z,1360
2017-01-23T13:51:48.665Z,1452
2017-01-23T13:52:59.382Z,1360
2017-01-23T13:54:10.084Z,1296
2017-01-23T13:55:20.805Z,1300
2017-01-23T13:56:31.547Z,1288
2017-01-23T13:57:42.271Z,1288
2017-01-23T13:58:53.015Z,1252
2017-01-23T14:00:03.757Z,1272
2017-01-23T14:01:14.482Z,1324
2017-01-23T14:02:25.193Z,1416
2017-01-23T14:03:35.923Z,1492
2017-01-23T14:04:46.643Z,1404
2017-01-23T14:05:57.364Z,1272
2017-01-23T14:07:08.084Z,1268
2017-01-23T14:08:18.782Z,1312
2017-01-23T14:09:29.503Z,1164
2017-01-23T14:10:40.219Z,1140
2017-01-23T14:11:50.966Z,1184
2017-01-23T14:13:01.672Z,1108
2017-01-23T14:14:12.414Z,1068
2017-01-23T14:15:23.154Z,1008
2017-01-23T14:16:33.866Z,952
2017-01-23T14:17:44.578Z,924
2017-01-23T14:18:55.318Z,912
2017-01-23T14:20:06.040Z,960
2017-01-23T14:21:16.757Z,900
2017-01-23T14:22:27.477Z,868
2017-01-23T14:23:38.206Z,872
2017-01-23T14:24:48.924Z,908
2017-01-23T14:26:00.039Z,896
2017-01-23T14:27:10.753Z,972
2017-01-23T14:28:21.484Z,944
2017-01-23T14:29:32.207Z,852
2017-01-23T14:30:42.922Z,912
2017-01-23T14:31:53.622Z,840
2017-01-23T14:33:04.339Z,880
2017-01-23T14:34:15.059Z,792
2017-01-23T14:35:25.785Z,736
2017-01-23T14:36:36.505Z,700
2017-01-23T14:37:47.248Z,724
2017-01-23T14:38:57.942Z,668
2017-01-23T14:40:08.642Z,636
2017-01-23T14:41:19.382Z,604
2017-01-23T14:42:30.105Z,536
2017-01-23T14:43:40.824Z,504
2017-01-23T14:44:51.550Z,476
2017-01-23T14:46:02.301Z,456
2017-01-23T14:47:13.039Z,448
2017-01-23T14:48:23.741Z,428
2017-01-23T14:49:34.454Z,368
2017-01-23T14:50:45.180Z,340
2017-01-23T14:51:55.924Z,392
2017-01-23T14:53:06.660Z,416
2017-01-23T14:54:17.392Z,388
2017-01-23T14:55:28.158Z,384
2017-01-23T14:56:38.857Z,376
2017-01-23T14:57:49.580Z,328
2017-01-23T14:59:00.297Z,300
2017-01-23T15:00:11.392Z,268
2017-01-23T15:01:22.113Z,252
2017-01-23T15:02:32.837Z,248
2017-01-23T15:03:43.576Z,244
2017-01-23T15:04:54.300Z,236
2017-01-23T15:06:05.018Z,232
2017-01-23T15:07:15.746Z,268
2017-01-23T15:08:26.462Z,244
2017-01-23T15:09:37.187Z,248
2017-01-23T15:10:47.923Z,256
2017-01-23T15:11:58.654Z,252
2017-01-23T15:13:09.370Z,216
2017-01-23T15:14:20.098Z,184
2017-01-23T15:15:30.840Z,164
2017-01-23T15:16:41.606Z,180
2017-01-23T15:17:52.331Z,200
2017-01-23T15:19:03.061Z,196
2017-01-23T15:20:13.799Z,176
2017-01-23T15:21:24.502Z,160
2017-01-23T15:22:35.616Z,156
2017-01-23T15:23:46.317Z,148
2017-01-23T15:24:57.054Z,136
2017-01-23T15:26:07.776Z,132
2017-01-23T15:27:18.486Z,112
2017-01-23T15:28:29.197Z,100
2017-01-23T15:29:39.918Z,96
2017-01-23T15:30:50.645Z,76
2017-01-23T15:32:01.343Z,84
2017-01-23T15:33:12.056Z,76
2017-01-23T15:34:22.795Z,80
2017-01-23T15:35:33.503Z,64
2017-01-23T15:36:44.238Z,60
2017-01-23T15:37:54.968Z,56
2017-01-23T15:39:05.686Z,52
2017-01-23T15:40:16.408Z,44
2017-01-23T15:41:27.110Z,32
2017-01-23T15:42:37.828Z,32
2017-01-23T15:43:48.531Z,28
2017-01-23T15:44:59.218Z,24
2017-01-23T15:46:09.939Z,24
2017-01-23T15:47:20.637Z,32
2017-01-23T15:48:31.381Z,28
2017-01-23T15:49:42.123Z,20
2017-01-23T15:50:52.847Z,20
2017-01-23T15:52:03.554Z,12
2017-01-23T15:53:14.289Z,12
2017-01-23T15:54:24.988Z,12
2017-01-23T15:55:35.711Z,12
2017-01-23T15:56:46.455Z,8
2017-01-23T15:57:57.170Z,8
2017-01-23T15:59:07.874Z,8
2017-01-23T16:00:18.587Z,4
2017-01-23T16:01:29.291Z,4
2017-01-23T16:02:40.015Z,4
2017-01-23T16:03:50.751Z,4
2017-01-23T16:05:01.471Z,0
2017-01-23T16:06:12.195Z,4
2017-01-23T16:07:22.896Z,4
2017-01-23T16:08:33.666Z,4
2017-01-23T16:09:44.408Z,4
2017-01-23T16:10:55.137Z,0
2017-01-23T16:12:05.859Z,0
2017-01-23T16:13:16.597Z,0
2017-01-23T16:14:27.318Z,0
2017-01-23T16:15:38.039Z,0
2017-01-23T16:16:48.761Z,0
2017-01-23T16:17:59.507Z,0
2017-01-23T16:19:10.245Z,0
2017-01-23T16:20:20.953Z,0
2017-01-23T16:21:31.667Z,0
2017-01-23T16:22:42.388Z,0
2017-01-23T16:23:53.113Z,0
2017-01-23T16:25:03.860Z,0
2017-01-23T16:26:14.975Z,0
2017-01-23T16:27:25.692Z,0
2017-01-23T16:28:36.418Z,0
2017-01-23T16:29:47.114Z,0
2017-01-23T16:30:57.843Z,0
2017-01-23T16:32:08.574Z,0
2017-01-23T16:33:19.304Z,0